Time;durP1;ratioP1;P1;durP2;ratioP2;P2;SDS_P1;SDS_P2;PMS_P1;PMS_P2;Temp;Humidity;BMP_temperature;BMP_pressure;BME280_temperature;BME280_humidity;BME280_pressure;Samples;Min_cycle;Max_cycle;Signal;HPM_P1;HPM_P2
2021/05/24 00:02:17;;;;;;;23.07;9.08;;;;;;;14.45;100.00;100121.80;1712900;83;21018;-76
2021/05/24 00:04:44;;;;;;;22.13;10.05;;;;;;;14.44;100.00;100125.01;1719903;83;21041;-76
2021/05/24 00:07:13;;;;;;;25.05;10.48;;;;;;;14.43;100.00;100124.70;1719853;83;21125;-75
2021/05/24 00:09:41;;;;;;;22.82;9.78;;;;;;;14.42;100.00;100124.37;1719869;83;21065;-75
2021/05/24 00:12:09;;;;;;;24.90;10.55;;;;;;;14.43;100.00;100127.95;1719747;83;21627;-75
2021/05/24 00:14:38;;;;;;;26.12;10.18;;;;;;;14.42;100.00;100120.81;1719945;83;21089;-75
2021/05/24 00:17:06;;;;;;;23.22;10.05;;;;;;;14.40;100.00;100122.36;1719654;83;21547;-75
2021/05/24 00:19:34;;;;;;;23.70;10.72;;;;;;;14.38;100.00;100120.36;1723856;83;20996;-76
2021/05/24 00:22:02;;;;;;;31.45;11.05;;;;;;;14.37;100.00;100125.47;1687312;85;21084;-76
2021/05/24 00:24:28;;;;;;;26.33;10.45;;;;;;;14.33;100.00;100125.54;1687031;85;21535;-75
2021/05/24 00:26:55;;;;;;;27.42;10.75;;;;;;;14.30;100.00;100125.92;1687207;85;21060;-76
2021/05/24 00:29:22;;;;;;;26.87;10.25;;;;;;;14.25;100.00;100121.57;1687314;85;21112;-75
2021/05/24 00:31:50;;;;;;;26.12;10.03;;;;;;;14.21;100.00;100125.72;1687115;85;21064;-76
2021/05/24 00:34:19;;;;;;;22.22;9.35;;;;;;;14.17;100.00;100120.35;1687080;85;21108;-75
2021/05/24 00:36:46;;;;;;;26.07;9.95;;;;;;;14.14;100.00;100112.05;1736381;83;21036;-75
2021/05/24 00:39:13;;;;;;;26.20;9.98;;;;;;;14.13;100.00;100113.10;1687142;85;21049;-75
2021/05/24 00:41:41;;;;;;;22.10;9.63;;;;;;;14.12;100.00;100116.84;1736488;83;21075;-75
2021/05/24 00:44:09;;;;;;;27.45;11.08;;;;;;;14.11;100.00;100122.47;1681370;85;21142;-75
2021/05/24 00:46:36;;;;;;;19.15;8.63;;;;;;;14.11;100.00;100115.67;1697965;84;21012;-75
2021/05/24 00:49:06;;;;;;;18.40;8.78;;;;;;;14.14;100.00;100112.57;1698289;84;21060;-75
2021/05/24 00:51:33;;;;;;;18.92;7.87;;;;;;;14.19;100.00;100111.48;1670034;86;21071;-75
2021/05/24 00:54:01;;;;;;;18.57;7.40;;;;;;;14.26;100.00;100102.88;1683151;85;21079;-76
2021/05/24 00:56:28;;;;;;;13.88;6.65;;;;;;;14.32;100.00;100110.24;1683171;85;21099;-75
2021/05/24 00:58:56;;;;;;;16.45;6.40;;;;;;;14.39;100.00;100110.31;1683262;85;21087;-76
2021/05/24 01:01:28;;;;;;;18.70;7.35;;;;;;;14.45;100.00;100108.19;1684986;84;21522;-76
2021/05/24 01:03:55;;;;;;;17.73;7.00;;;;;;;14.51;100.00;100107.92;1715132;84;21624;-76
2021/05/24 01:06:22;;;;;;;19.98;7.45;;;;;;;14.52;100.00;100100.94;1715167;84;21536;-76
2021/05/24 01:08:48;;;;;;;17.55;6.55;;;;;;;14.53;100.00;100108.04;1715223;84;21075;-76
2021/05/24 01:11:15;;;;;;;12.78;6.03;;;;;;;14.53;100.00;100094.96;1715334;84;21031;-76
2021/05/24 01:13:44;;;;;;;12.80;5.20;;;;;;;14.54;100.00;100096.13;1715056;84;21094;-76
2021/05/24 01:16:10;;;;;;;9.65;4.90;;;;;;;14.56;100.00;100089.97;1666910;84;21047;-76
2021/05/24 01:18:39;;;;;;;13.10;5.00;;;;;;;14.61;100.00;100092.98;1715232;84;21043;-76
2021/05/24 01:21:10;;;;;;;11.10;4.92;;;;;;;14.67;100.00;100089.98;1688530;84;21591;-76
2021/05/24 01:23:44;;;;;;;13.22;5.25;;;;;;;14.73;100.00;100090.58;1671776;86;21116;-76
2021/05/24 01:26:12;;;;;;;14.33;5.10;;;;;;;14.78;100.00;100092.19;1598144;90;21616;-76
2021/05/24 01:28:38;;;;;;;15.80;5.33;;;;;;;14.80;100.00;100094.19;1598288;90;21138;-76
2021/05/24 01:31:05;;;;;;;13.05;5.33;;;;;;;14.79;100.00;100097.11;1598326;90;21131;-75
2021/05/24 01:36:03;;;;;;;17.05;6.05;;;;;;;14.76;100.00;100088.80;1814068;77;22254;-77
2021/05/24 01:38:31;;;;;;;20.97;6.20;;;;;;;14.69;100.00;100090.63;1786155;80;21048;-76
2021/05/24 01:41:00;;;;;;;18.12;6.37;;;;;;;14.66;100.00;100086.09;1785974;80;21056;-76
2021/05/24 01:43:29;;;;;;;17.55;6.03;;;;;;;14.61;100.00;100082.62;1785933;80;21068;-76
2021/05/24 01:45:55;;;;;;;13.75;5.70;;;;;;;14.57;100.00;100083.50;1739810;81;21030;-75
2021/05/24 01:48:23;;;;;;;16.15;6.22;;;;;;;14.53;100.00;100084.08;1739900;82;21014;-76
2021/05/24 01:50:51;;;;;;;20.32;5.67;;;;;;;14.51;100.00;100086.16;1742194;82;21034;-74
2021/05/24 01:53:18;;;;;;;15.13;4.97;;;;;;;14.50;100.00;100083.10;1743258;82;21024;-76
2021/05/24 01:55:47;;;;;;;17.27;5.25;;;;;;;14.49;100.00;100078.72;1743692;82;21077;-74
2021/05/24 01:58:14;;;;;;;16.90;5.10;;;;;;;14.52;100.00;100079.66;1743429;82;20987;-75
2021/05/24 02:00:40;;;;;;;13.00;4.83;;;;;;;14.57;100.00;100079.42;1743635;82;21062;-75
2021/05/24 02:03:07;;;;;;;11.45;5.05;;;;;;;14.60;100.00;100075.48;1719095;82;21049;-76
2021/05/24 02:05:35;;;;;;;11.90;4.30;;;;;;;14.64;100.00;100081.37;1710114;84;21053;-75
2021/05/24 02:08:02;;;;;;;11.80;4.40;;;;;;;14.67;100.00;100085.08;1713124;84;21045;-75
2021/05/24 02:10:33;;;;;;;9.58;4.50;;;;;;;14.71;100.00;100084.46;1712847;84;21005;-74
2021/05/24 02:13:01;;;;;;;8.45;4.50;;;;;;;14.78;100.00;100075.86;1710125;84;21078;-75
2021/05/24 02:15:35;;;;;;;10.88;4.60;;;;;;;14.86;100.00;100072.66;1710051;84;21134;-76
2021/05/24 02:18:01;;;;;;;9.55;4.53;;;;;;;14.95;100.00;100075.02;1709914;84;21241;-75
2021/05/24 02:20:29;;;;;;;13.95;4.40;;;;;;;15.03;100.00;100066.38;1729039;82;21072;-75
2021/05/24 02:22:58;;;;;;;8.30;4.20;;;;;;;15.06;100.00;100072.80;1738229;82;21550;-75
2021/05/24 02:25:24;;;;;;;10.90;3.98;;;;;;;15.04;100.00;100071.63;1737887;82;21068;-75
2021/05/24 02:27:52;;;;;;;5.90;3.40;;;;;;;15.02;100.00;100068.80;1738310;82;21032;-75
2021/05/24 02:30:21;;;;;;;7.55;3.40;;;;;;;14.98;100.00;100074.63;1738142;82;21048;-75
2021/05/24 02:32:48;;;;;;;6.05;3.37;;;;;;;14.95;100.00;100080.47;1738130;82;21068;-76
2021/05/24 02:35:16;;;;;;;7.15;3.33;;;;;;;14.94;100.00;100083.38;1746065;81;21119;-76
2021/05/24 02:37:44;;;;;;;9.43;3.90;;;;;;;14.91;100.00;100084.64;1715791;83;21060;-75
2021/05/24 02:40:11;;;;;;;6.28;3.20;;;;;;;14.89;100.00;100082.64;1713471;84;21092;-75
2021/05/24 02:42:38;;;;;;;5.03;3.02;;;;;;;14.89;100.00;100085.36;1698365;84;21083;-75
2021/05/24 02:45:08;;;;;;;6.85;3.60;;;;;;;14.90;100.00;100083.47;1704201;84;21064;-75
2021/05/24 02:47:35;;;;;;;8.40;3.60;;;;;;;14.90;100.00;100088.91;1703596;84;21549;-75
2021/05/24 02:50:05;;;;;;;11.08;4.37;;;;;;;14.91;100.00;100090.58;1703584;84;21016;-75
2021/05/24 02:52:32;;;;;;;8.38;3.70;;;;;;;14.91;100.00;100083.77;1703651;84;21063;-76
2021/05/24 02:54:58;;;;;;;10.45;3.62;;;;;;;14.90;100.00;100085.66;1703643;84;21040;-76
2021/05/24 02:57:25;;;;;;;7.92;3.65;;;;;;;14.89;100.00;100083.13;1703793;84;21017;-75
2021/05/24 02:59:51;;;;;;;6.58;3.27;;;;;;;14.89;100.00;100083.13;1703680;84;21028;-75
2021/05/24 03:02:24;;;;;;;8.23;3.25;;;;;;;14.92;100.00;100089.02;1711192;83;21061;-76
2021/05/24 03:04:46;;;;;;;9.78;3.45;;;;;;;14.98;100.00;100087.41;1717159;83;21059;-75
2021/05/24 03:07:12;;;;;;;10.80;3.55;;;;;;;15.05;100.00;100077.91;1721445;83;21030;-76
2021/05/24 03:09:41;;;;;;;5.67;3.33;;;;;;;15.14;100.00;100088.45;1650051;83;21662;-75
2021/05/24 03:12:08;;;;;;;11.08;3.35;;;;;;;15.22;100.00;100085.25;1721206;83;21555;-76
2021/05/24 03:14:36;;;;;;;6.00;3.00;;;;;;;15.35;100.00;100090.76;1744595;82;21052;-77
2021/05/24 03:17:02;;;;;;;7.97;3.40;;;;;;;15.48;100.00;100090.84;1744576;82;21020;-77
2021/05/24 03:19:30;;;;;;;6.65;3.02;;;;;;;15.61;100.00;100077.80;1752412;81;21009;-76
2021/05/24 03:21:58;;;;;;;5.12;3.10;;;;;;;15.74;100.00;100070.18;1773538;81;21096;-77
2021/05/24 03:24:26;;;;;;;5.70;3.02;;;;;;;15.95;100.00;100071.96;1773435;81;21073;-77
2021/05/24 03:26:54;;;;;;;4.97;3.10;;;;;;;15.95;100.00;100071.96;1725246;83;21557;-77
2021/05/24 03:29:21;;;;;;;3.90;2.80;;;;;;;16.07;100.00;100078.50;1755261;82;21048;-77
2021/05/24 03:31:48;;;;;;;5.87;3.08;;;;;;;16.31;100.00;100085.27;1725132;83;21585;-77
2021/05/24 03:34:15;;;;;;;5.83;3.12;;;;;;;16.31;100.00;100085.27;1723998;83;21080;-77
2021/05/24 03:36:41;;;;;;;5.83;3.37;;;;;;;16.54;100.00;100081.31;1704405;84;21054;-77
2021/05/24 03:39:08;;;;;;;8.95;3.60;;;;;;;16.62;100.00;100086.55;1769915;81;21531;-75
2021/05/24 03:41:35;;;;;;;9.30;3.75;;;;;;;16.68;100.00;100088.98;1770153;81;21049;-76
2021/05/24 03:44:01;;;;;;;8.70;4.00;;;;;;;16.68;100.00;100088.98;1770023;81;21013;-76
2021/05/24 03:46:30;;;;;;;8.85;3.60;;;;;;;16.73;100.00;100092.44;1704086;84;21085;-76
2021/05/24 03:48:59;;;;;;;6.85;3.70;;;;;;;16.78;100.00;100089.38;1704453;84;21574;-76
2021/05/24 03:51:25;;;;;;;8.03;3.80;;;;;;;16.86;100.00;100089.75;1769990;80;21511;-75
2021/05/24 03:53:53;;;;;;;13.65;3.77;;;;;;;16.92;100.00;100094.34;1704327;84;21085;-75
2021/05/24 03:56:21;;;;;;;6.92;3.83;;;;;;;16.98;100.00;100086.69;1770287;81;21028;-75
2021/05/24 03:58:48;;;;;;;6.67;3.30;;;;;;;17.04;100.00;100090.46;1704353;84;21053;-76
2021/05/24 04:01:15;;;;;;;7.42;3.80;;;;;;;17.10;100.00;100092.86;1770055;81;21053;-75
2021/05/24 04:03:41;;;;;;;10.20;4.03;;;;;;;17.17;100.00;100088.22;1741385;82;21017;-75
2021/05/24 04:06:11;;;;;;;13.65;3.92;;;;;;;17.24;100.00;100090.41;1741142;82;21029;-76
2021/05/24 04:08:43;;;;;;;11.08;4.40;;;;;;;17.30;100.00;100086.84;1741274;82;21063;-75
2021/05/24 04:11:10;;;;;;;39.53;7.70;;;;;;;17.38;100.00;100085.22;1741093;81;21034;-74
2021/05/24 04:13:38;;;;;;;27.22;5.58;;;;;;;17.46;100.00;100091.00;1740969;82;21064;-76
2021/05/24 04:16:06;;;;;;;26.15;4.78;;;;;;;17.54;100.00;100096.21;1741130;82;21073;-76
2021/05/24 04:18:33;;;;;;;13.90;4.00;;;;;;;17.59;100.00;100100.51;1720379;82;21056;-76
2021/05/24 04:21:03;;;;;;;14.95;4.58;;;;;;;17.63;100.00;100100.38;1740990;82;21043;-75
2021/05/24 04:23:29;;;;;;;18.27;4.60;;;;;;;17.67;100.00;100094.48;1741291;82;21056;-75
2021/05/24 04:25:56;;;;;;;17.27;4.65;;;;;;;17.69;100.00;100090.50;1741093;82;21028;-75
2021/05/24 04:28:23;;;;;;;12.85;4.70;;;;;;;17.71;100.00;100081.55;1741246;82;21539;-77
2021/05/24 04:30:50;;;;;;;21.73;4.97;;;;;;;17.77;100.00;100082.56;1740979;82;21593;-77
2021/05/24 04:33:16;;;;;;;19.60;4.67;;;;;;;17.88;100.00;100078.34;1741209;82;21032;-76
2021/05/24 04:35:43;;;;;;;14.90;4.20;;;;;;;18.00;100.00;100084.80;1745367;80;21088;-75
2021/05/24 04:38:10;;;;;;;12.37;3.80;;;;;;;18.07;100.00;100077.39;1749316;82;21052;-76
2021/05/24 04:40:37;;;;;;;10.45;3.90;;;;;;;18.13;100.00;100085.24;1749098;82;21518;-75
2021/05/24 04:43:03;;;;;;;8.20;3.70;;;;;;;18.11;100.00;100081.35;1749328;82;21585;-76
2021/05/24 04:45:31;;;;;;;12.45;3.60;;;;;;;18.10;100.00;100076.12;1749373;82;21060;-76
2021/05/24 04:47:57;;;;;;;14.55;3.75;;;;;;;18.11;100.00;100079.16;1749383;82;21036;-76
2021/05/24 04:50:25;;;;;;;11.25;3.83;;;;;;;18.14;100.00;100075.98;1749148;82;21502;-76
2021/05/24 04:52:51;;;;;;;13.35;3.90;;;;;;;18.16;100.00;100076.59;1749525;82;21502;-77
2021/05/24 04:55:20;;;;;;;11.33;3.67;;;;;;;18.20;100.00;100073.22;1749192;82;21020;-78
2021/05/24 04:57:47;;;;;;;16.67;3.85;;;;;;;18.26;100.00;100076.13;1749355;82;21060;-77
2021/05/24 05:00:14;;;;;;;16.75;4.42;;;;;;;18.29;100.00;100070.19;1749422;82;21015;-77
2021/05/24 05:02:41;;;;;;;17.35;4.10;;;;;;;18.32;100.00;100063.75;1767712;80;21040;-77
2021/05/24 05:05:09;;;;;;;12.65;4.05;;;;;;;18.37;100.00;100056.25;1780158;80;20985;-77
2021/05/24 05:07:36;;;;;;;13.70;4.08;;;;;;;18.39;100.00;100075.48;1780158;79;21072;-77
2021/05/24 05:10:04;;;;;;;8.15;3.30;;;;;;;18.41;100.00;100086.22;1780031;80;21044;-77
2021/05/24 05:12:31;;;;;;;42.20;32.33;;;;;;;18.38;100.00;100094.36;1773980;80;21510;-82
2021/05/24 05:14:58;;;;;;;202.75;155.93;;;;;;;18.39;100.00;100111.08;1749702;82;21020;-81
2021/05/24 05:17:26;;;;;;;30.70;26.37;;;;;;;18.43;100.00;100118.31;1749497;82;21072;-83
2021/05/24 05:19:52;;;;;;;15.63;5.25;;;;;;;18.49;100.00;100121.55;1762412;80;21487;-78
2021/05/24 05:22:21;;;;;;;17.27;6.87;;;;;;;18.51;100.00;100125.44;1780412;80;21048;-85
2021/05/24 05:24:47;;;;;;;12.18;4.53;;;;;;;18.51;100.00;100126.27;1780479;80;21023;-79
2021/05/24 05:27:14;;;;;;;16.32;6.72;;;;;;;18.53;100.00;100126.05;1780069;80;21049;-80
2021/05/24 05:29:42;;;;;;;22.13;5.90;;;;;;;18.53;100.00;100125.52;1780273;80;21498;-81
2021/05/24 05:32:08;;;;;;;22.45;7.83;;;;;;;18.56;100.00;100124.25;1779321;80;21024;-81
2021/05/24 05:34:35;;;;;;;29.45;18.10;;;;;;;18.58;100.00;100125.69;1768225;80;21020;-77
2021/05/24 05:37:02;;;;;;;29.85;12.45;;;;;;;18.59;100.00;100132.00;1735363;82;21108;-78
2021/05/24 05:39:28;;;;;;;25.43;6.95;;;;;;;18.58;100.00;100133.91;1735705;83;21336;-79
2021/05/24 05:41:55;;;;;;;29.98;14.07;;;;;;;18.62;100.00;100137.04;1730135;83;21076;-78
2021/05/24 05:44:21;;;;;;;39.05;7.72;;;;;;;18.65;100.00;100127.02;1730153;83;20996;-81
2021/05/24 05:46:48;;;;;;;27.10;6.47;;;;;;;18.75;100.00;100124.63;1730282;83;21040;-80
2021/05/24 05:49:14;;;;;;;62.60;41.55;;;;;;;18.84;100.00;100121.12;1730199;83;21043;-77
2021/05/24 05:51:41;;;;;;;25.92;8.18;;;;;;;18.95;100.00;100119.55;1730105;83;21579;-82
2021/05/24 05:54:08;;;;;;;16.80;4.40;;;;;;;19.07;100.00;100119.13;1730737;83;21013;-83
2021/05/24 05:56:35;;;;;;;19.80;4.85;;;;;;;19.19;100.00;100121.11;1724944;83;21032;-80
2021/05/24 05:59:02;;;;;;;13.85;4.25;;;;;;;19.23;100.00;100120.95;1716724;83;21040;-76
2021/05/24 06:01:29;;;;;;;11.08;5.10;;;;;;;19.24;100.00;100122.10;1716946;83;21016;-79
2021/05/24 06:03:57;;;;;;;9.45;3.75;;;;;;;19.23;100.00;100120.45;1714328;83;21001;-81
2021/05/24 06:06:24;;;;;;;14.58;4.05;;;;;;;19.19;100.00;100115.63;1714650;83;21641;-77
2021/05/24 06:08:52;;;;;;;16.57;4.83;;;;;;;19.14;100.00;100119.03;1716734;83;21032;-79
2021/05/24 06:11:20;;;;;;;9.10;4.75;;;;;;;19.08;100.00;100110.36;1712592;83;21024;-80
2021/05/24 06:13:48;;;;;;;19.45;5.08;;;;;;;19.05;100.00;100122.63;1716648;83;21080;-78
2021/05/24 06:16:15;;;;;;;45.58;30.75;;;;;;;18.98;100.00;100121.81;1714131;83;21072;-76
2021/05/24 06:18:43;;;;;;;15.83;6.22;;;;;;;18.92;100.00;100168.77;1713840;83;21024;-74
2021/05/24 06:21:10;;;;;;;20.25;7.72;;;;;;;18.81;100.00;100170.00;1717715;83;21075;-72
2021/05/24 06:23:36;;;;;;;15.85;7.05;;;;;;;18.68;100.00;100172.28;1700961;83;21580;-75
2021/05/24 06:26:04;;;;;;;25.65;7.95;;;;;;;18.54;100.00;100171.55;1701014;83;21176;-73
2021/05/24 06:28:31;;;;;;;36.25;12.03;;;;;;;18.42;100.00;100167.84;1700937;84;21016;-72
2021/05/24 06:30:58;;;;;;;29.52;12.15;;;;;;;18.35;100.00;100167.87;1700951;84;21087;-74
2021/05/24 06:33:24;;;;;;;28.00;13.40;;;;;;;18.28;100.00;100171.17;1735534;82;21639;-73
2021/05/24 06:35:51;;;;;;;29.63;14.35;;;;;;;18.19;100.00;100168.67;1740804;82;21146;-73
2021/05/24 06:38:18;;;;;;;37.83;15.20;;;;;;;18.19;100.00;100174.69;1749020;81;21056;-80
2021/05/24 06:40:44;;;;;;;33.15;14.00;;;;;;;18.18;100.00;100184.80;1753622;81;21609;-75
2021/05/24 06:43:11;;;;;;;28.23;13.38;;;;;;;18.17;100.00;100174.07;1751294;81;21080;-75
2021/05/24 06:45:40;;;;;;;64.20;36.70;;;;;;;18.13;100.00;100175.54;1747753;81;21514;-81
2021/05/24 06:48:07;;;;;;;49.33;30.43;;;;;;;18.14;100.00;100167.66;1753262;81;21021;-73
2021/05/24 06:50:33;;;;;;;34.58;14.43;;;;;;;18.17;100.00;100164.49;1704844;84;21601;-74
2021/05/24 06:53:00;;;;;;;28.25;14.05;;;;;;;18.26;100.00;100178.23;1703687;83;21081;-73
2021/05/24 06:55:27;;;;;;;37.00;19.65;;;;;;;18.31;100.00;100173.45;1705187;83;21092;-72
2021/05/24 06:57:55;;;;;;;33.63;17.15;;;;;;;18.33;100.00;100174.09;1714595;83;21020;-72
2021/05/24 07:00:22;;;;;;;32.17;12.55;;;;;;;18.30;100.00;100187.67;1713923;83;21082;-76
2021/05/24 07:02:49;;;;;;;25.45;10.85;;;;;;;18.25;100.00;100184.75;1706673;83;21032;-76
2021/05/24 07:05:24;;;;;;;24.10;10.98;;;;;;;18.20;100.00;100186.78;1700580;84;21581;-77
2021/05/24 07:08:01;;;;;;;22.60;11.00;;;;;;;18.13;100.00;100183.75;1666071;86;21109;-77
2021/05/24 07:10:28;;;;;;;22.25;10.03;;;;;;;18.05;100.00;100186.21;1671969;86;21019;-74
2021/05/24 07:12:54;;;;;;;25.88;11.83;;;;;;;17.99;100.00;100191.20;1671520;86;21493;-74
2021/05/24 07:15:21;;;;;;;22.40;9.60;;;;;;;17.95;100.00;100193.49;1671554;85;21081;-73
2021/05/24 07:17:48;;;;;;;21.40;10.55;;;;;;;17.92;100.00;100196.69;1711723;84;21052;-73
2021/05/24 07:20:15;;;;;;;21.40;10.95;;;;;;;17.88;100.00;100195.41;1710823;84;21561;-75
2021/05/24 07:22:41;;;;;;;19.85;9.53;;;;;;;17.88;100.00;100200.05;1705210;84;21064;-74
2021/05/24 07:25:09;;;;;;;21.77;8.58;;;;;;;17.87;100.00;100202.50;1704260;83;21361;-74
2021/05/24 07:27:37;;;;;;;18.67;8.68;;;;;;;17.90;100.00;100202.04;1704019;84;21098;-73
2021/05/24 07:30:06;;;;;;;18.40;8.33;;;;;;;17.96;100.00;100208.03;1710932;83;21068;-73
2021/05/24 07:32:33;;;;;;;17.32;7.83;;;;;;;18.08;100.00;100219.13;1712247;84;21024;-80
2021/05/24 07:35:00;;;;;;;15.72;8.15;;;;;;;18.18;100.00;100220.88;1711986;83;21570;-79
2021/05/24 07:37:26;;;;;;;17.95;8.63;;;;;;;18.31;100.00;100214.00;1723860;83;21127;-79
2021/05/24 07:39:53;;;;;;;14.38;7.60;;;;;;;18.53;100.00;100208.20;1726354;83;21118;-82
2021/05/24 07:42:20;;;;;;;12.95;7.25;;;;;;;18.66;100.00;100210.01;1706267;83;21029;-77
2021/05/24 07:44:46;;;;;;;17.85;7.12;;;;;;;18.79;100.00;100211.31;1725243;83;21085;-82
2021/05/24 07:47:14;;;;;;;13.55;7.00;;;;;;;18.92;100.00;100211.77;1724666;83;21155;-78
2021/05/24 07:49:42;;;;;;;14.05;6.15;;;;;;;18.99;100.00;100196.12;1725882;83;21552;-78
2021/05/24 07:52:08;;;;;;;13.53;6.62;;;;;;;19.01;100.00;100198.64;1724901;83;21125;-78
2021/05/24 07:54:35;;;;;;;15.93;6.67;;;;;;;18.94;100.00;100193.20;1722756;83;21176;-73
2021/05/24 07:57:02;;;;;;;14.93;6.17;;;;;;;18.87;100.00;100206.11;1724339;83;21000;-74
2021/05/24 07:59:29;;;;;;;13.48;5.92;;;;;;;18.85;100.00;100213.72;1722879;83;21325;-78
2021/05/24 08:01:56;;;;;;;15.23;6.45;;;;;;;18.83;100.00;100211.73;1724799;83;21044;-74
2021/05/24 08:04:22;;;;;;;14.20;6.42;;;;;;;18.77;100.00;100214.80;1724295;83;21064;-75
2021/05/24 08:06:50;;;;;;;10.05;5.90;;;;;;;18.64;100.00;100222.55;1708564;83;21031;-73
2021/05/24 08:09:17;;;;;;;11.95;6.22;;;;;;;18.52;100.00;100237.98;1724588;83;21103;-70
2021/05/24 08:11:46;;;;;;;12.03;5.37;;;;;;;18.36;100.00;100240.19;1763483;80;21574;-73
2021/05/24 08:14:14;;;;;;;9.80;4.95;;;;;;;18.18;100.00;100237.30;1755283;82;21573;-71
2021/05/24 08:16:46;;;;;;;8.13;5.03;;;;;;;17.97;100.00;100240.66;1767980;80;21044;-72
2021/05/24 08:19:15;;;;;;;10.90;5.45;;;;;;;17.77;100.00;100243.91;1752457;82;21045;-71
2021/05/24 08:21:46;;;;;;;9.88;4.58;;;;;;;17.58;100.00;100246.98;1750926;82;21239;-75
2021/05/24 08:24:13;;;;;;;12.20;5.62;;;;;;;17.38;100.00;100243.74;1751037;82;21060;-76
2021/05/24 08:26:40;;;;;;;9.28;4.78;;;;;;;17.22;100.00;100250.47;1740999;82;21046;-74
2021/05/24 08:29:07;;;;;;;14.28;7.17;;;;;;;17.04;100.00;100249.73;1723220;83;21042;-74
2021/05/24 08:31:35;;;;;;;14.13;5.78;;;;;;;16.88;100.00;100256.42;1735078;82;21069;-73
2021/05/24 08:34:02;;;;;;;14.55;6.40;;;;;;;16.72;100.00;100260.05;1749798;82;21108;-76
2021/05/24 08:36:29;;;;;;;9.50;4.70;;;;;;;16.60;100.00;100263.36;1725648;82;21064;-76
2021/05/24 08:38:56;;;;;;;7.80;4.55;;;;;;;16.51;100.00;100263.23;1722808;83;21052;-75
2021/05/24 08:41:23;;;;;;;9.10;4.60;;;;;;;16.39;100.00;100265.69;1723244;83;21562;-78
2021/05/24 08:43:50;;;;;;;8.83;4.90;;;;;;;16.27;100.00;100271.41;1722897;83;21581;-76
2021/05/24 08:46:17;;;;;;;9.45;4.80;;;;;;;16.13;100.00;100275.98;1723160;83;21111;-77
2021/05/24 08:48:43;;;;;;;7.15;3.90;;;;;;;15.98;100.00;100275.27;1723049;83;21052;-74
2021/05/24 08:51:10;;;;;;;6.50;4.30;;;;;;;15.85;100.00;100265.95;1723177;83;21049;-75
2021/05/24 08:53:38;;;;;;;9.28;5.58;;;;;;;15.72;100.00;100264.45;1722415;83;21636;-72
2021/05/24 08:56:08;;;;;;;9.38;4.92;;;;;;;15.59;100.00;100258.41;1722159;83;21625;-75
2021/05/24 08:58:35;;;;;;;11.30;5.78;;;;;;;15.49;100.00;100260.13;1723177;83;21060;-74
2021/05/24 09:01:04;;;;;;;7.60;4.83;;;;;;;15.40;100.00;100253.64;1723004;83;21111;-75
2021/05/24 09:03:33;;;;;;;17.25;6.55;;;;;;;15.35;100.00;100246.91;1751027;82;21072;-73
2021/05/24 09:06:01;;;;;;;14.35;6.28;;;;;;;15.34;100.00;100225.31;1752870;82;21562;-76
2021/05/24 09:08:39;;;;;;;14.58;8.05;;;;;;;15.31;100.00;100223.80;1753015;82;21562;-70
2021/05/24 09:11:20;;;;;;;12.90;7.22;;;;;;;15.28;100.00;100247.37;1752821;82;21597;-72
2021/05/24 09:13:48;;;;;;;14.45;6.42;;;;;;;15.25;100.00;100261.91;1724027;82;21119;-74
2021/05/24 09:16:27;;;;;;;8.50;5.67;;;;;;;15.19;100.00;100271.69;1696071;82;21020;-73
2021/05/24 09:19:17;;;;;;;9.58;5.05;;;;;;;15.16;100.00;100269.38;1701978;84;21126;-70
2021/05/24 09:21:58;;;;;;;9.98;5.08;;;;;;;15.06;100.00;100267.50;1685683;85;21124;-73
2021/05/24 09:24:36;;;;;;;8.85;5.20;;;;;;;15.06;100.00;100267.50;1683913;85;21209;-73
2021/05/24 09:27:05;;;;;;;12.07;5.67;;;;;;;15.02;100.00;100263.48;1672414;85;21058;-76
2021/05/24 09:29:46;;;;;;;11.28;5.35;;;;;;;14.99;100.00;100268.78;1660713;86;21102;-74
2021/05/24 09:32:24;;;;;;;10.28;5.35;;;;;;;14.97;100.00;100276.31;1644930;87;21092;-70
2021/05/24 09:34:51;;;;;;;12.37;5.90;;;;;;;14.91;100.00;100305.16;1644383;87;21079;-74
2021/05/24 09:37:35;;;;;;;9.38;4.97;;;;;;;14.90;100.00;100305.34;1625420;87;21116;-75
2021/05/24 09:40:22;;;;;;;11.90;5.30;;;;;;;14.90;100.00;100305.34;1537950;92;21108;-74
2021/05/24 09:42:49;;;;;;;13.50;6.62;;;;;;;14.91;100.00;100327.44;1525952;94;21146;-73
2021/05/24 09:45:17;;;;;;;8.93;5.30;;;;;;;14.87;100.00;100318.81;1526089;93;21158;-75
2021/05/24 09:47:45;;;;;;;9.68;5.75;;;;;;;14.81;100.00;100313.62;1525999;94;21085;-74
2021/05/24 09:50:16;;;;;;;10.43;5.67;;;;;;;14.81;100.00;100313.62;1501542;94;21106;-76
2021/05/24 09:52:44;;;;;;;8.48;4.85;;;;;;;14.83;100.00;100307.99;1489508;96;21159;-73
2021/05/24 09:55:24;;;;;;;6.78;4.17;;;;;;;14.87;100.00;100315.25;1489398;96;21099;-73
2021/05/24 09:58:06;;;;;;;6.47;4.53;;;;;;;14.86;100.00;100310.34;1489626;96;21103;-75
2021/05/24 10:00:41;;;;;;;7.67;4.50;;;;;;;14.86;100.00;100314.42;1489423;96;21214;-73
2021/05/24 10:03:10;;;;;;;9.60;4.60;;;;;;;14.80;100.00;100302.43;1487264;96;21149;-73
2021/05/24 10:05:40;;;;;;;6.40;4.40;;;;;;;14.77;100.00;100304.16;1486449;96;21117;-73
2021/05/24 10:08:08;;;;;;;6.67;4.20;;;;;;;14.72;100.00;100301.17;1485908;96;21408;-74
2021/05/24 10:10:35;;;;;;;6.55;4.67;;;;;;;14.67;100.00;100283.21;1486200;96;21630;-71
2021/05/24 10:13:04;;;;;;;6.30;4.70;;;;;;;14.63;100.00;100284.64;1486383;96;21661;-72
2021/05/24 10:15:34;;;;;;;6.83;4.10;;;;;;;14.58;100.00;100281.65;1485796;95;21105;-73
2021/05/24 10:18:02;;;;;;;6.55;4.00;;;;;;;14.53;100.00;100267.21;1453383;97;21143;-76
2021/05/24 10:20:30;;;;;;;8.58;4.20;;;;;;;14.50;100.00;100273.06;1480974;95;21130;-75
2021/05/24 10:22:57;;;;;;;7.37;4.25;;;;;;;14.47;100.00;100264.44;1522199;94;21237;-73
2021/05/24 10:25:24;;;;;;;5.28;4.08;;;;;;;14.44;100.00;100255.59;1480423;96;21100;-75
2021/05/24 10:27:51;;;;;;;7.97;5.10;;;;;;;14.41;100.00;100229.29;1568383;89;21194;-75
2021/05/24 10:30:19;;;;;;;13.75;6.35;;;;;;;14.38;100.00;100230.53;1616141;89;21192;-76
2021/05/24 10:32:58;;;;;;;7.08;5.37;;;;;;;14.38;100.00;100218.30;1616278;88;21618;-77
2021/05/24 10:35:42;;;;;;;11.12;4.87;;;;;;;14.41;100.00;100218.41;1659446;86;21598;-76
2021/05/24 10:38:32;;;;;;;13.38;7.33;;;;;;;14.36;100.00;100199.97;1652827;84;21102;-76
2021/05/24 10:41:09;;;;;;;10.53;5.08;;;;;;;14.30;100.00;100157.19;1654974;85;21620;-75
2021/05/24 10:43:45;;;;;;;9.43;4.05;;;;;;;14.27;100.00;100136.34;1625951;88;21118;-75
2021/05/24 10:46:31;;;;;;;8.78;6.62;;;;;;;14.26;100.00;100146.91;1681387;83;21069;-74
2021/05/24 10:49:07;;;;;;;7.55;4.60;;;;;;;14.25;100.00;100178.69;1697142;84;21070;-72
2021/05/24 10:51:58;;;;;;;7.90;4.40;;;;;;;14.27;100.00;100186.66;1696975;84;21113;-76
2021/05/24 10:54:33;;;;;;;6.25;4.30;;;;;;;14.29;100.00;100164.19;1697229;84;21133;-75
2021/05/24 10:57:06;;;;;;;7.08;4.60;;;;;;;14.40;100.00;100190.91;1697042;84;21567;-77
2021/05/24 10:59:48;;;;;;;7.62;4.85;;;;;;;14.53;100.00;100178.78;1697174;84;21137;-74
2021/05/24 11:02:28;;;;;;;6.60;4.80;;;;;;;14.69;100.00;100179.08;1690656;84;21036;-74
2021/05/24 11:05:10;;;;;;;7.78;4.08;;;;;;;14.89;100.00;100186.58;1681387;82;21524;-74
2021/05/24 11:07:47;;;;;;;7.22;4.90;;;;;;;15.06;100.00;100178.47;1677827;85;21139;-76
2021/05/24 11:10:19;;;;;;;7.87;4.85;;;;;;;15.27;100.00;100165.85;1681092;85;21315;-74
2021/05/24 11:12:57;;;;;;;7.78;4.80;;;;;;;15.38;100.00;100151.13;1680598;85;21689;-74
2021/05/24 11:15:39;;;;;;;5.72;4.35;;;;;;;15.46;100.00;100141.98;1680445;85;21590;-75
2021/05/24 11:18:12;;;;;;;5.87;3.95;;;;;;;15.50;100.00;100141.06;1681301;85;21065;-72
2021/05/24 11:29:09;;;;;;;6.17;3.60;;;;;;;15.97;100.00;100130.39;1645272;87;21118;-74
2021/05/24 11:31:41;;;;;;;4.22;3.75;;;;;;;15.97;100.00;100130.39;1645314;87;21041;-73